Torrington, CT

3:27 PM EDT on July 06, 2015 (GMT -0400)
Scott dr. | | Change Station
CLOSE
Current Station
Personal Weather Station
Location: Torrington, CT
Elevation: 971 ft
Nearby Weather Stations

Elev 971 ft 41.81 °N, 73.09 °W | Updated 10 minutes ago

Partly Cloudy
Partly Cloudy
83.0 °F
Feels Like 87 °F
N
1.0
Wind Variable Wind from SSW
Gusts 7.0 mph

Today
High -- | Low -- °F
--% Chance of Precip.
Yesterday
High -- | Low -- °F
Precip. -- in
5:23 AM 8:29 PM
Waning Gibbous, 73% visible
Pressure 30.20 in
Visibility 6.0 miles
Clouds Few 4000 ft
Mostly Cloudy 6000 ft
Heat Index 87 °F
Dew Point 70 °F
Humidity 66%
Rainfall 0.00 in
Snow Depth Not available.
UV 5.4 out of 12
Pollen 4.40 out of 12
Air Quality Not available.
Flu Activity Not available.
METAR KOXC 061850Z 20007KT 6SM HZ FEW040 BKN060 26/19 A3020

More Conditions Fewer Conditions

Pressure 30.20 in
Visibility 6.0 miles
Clouds Few 4000 ft
Mostly Cloudy 6000 ft
Heat Index 87 °F
Dew Point 70 °F
Humidity 66%
Rainfall 0.00 in
Snow Depth Not available.
UV 5.4 out of 12
Pollen 4.40 out of 12
Air Quality Not available.
Flu Activity Not available.
METAR KOXC 061850Z 20007KT 6SM HZ FEW040 BKN060 26/19 A3020

More Conditions Fewer Conditions

10-Day Weather Forecast

×

Almanac

Astronomy

Jul. 06, 2015 Rise Set
Actual Time
Civil Twilight
Nautical Twilight
Astronomical Twilight
Moon
Length of Visible Light
Length of Day
Tomorrow will be .
, % of the Moon is Illuminated

Today's Extremes

State Highs State Lows

Community

WunderPhotos

Upload Photos

1,835,621 photos uploaded!

WunderBlogs® & News

Nearby

Air Quality

  Air Quality AQ Index Pollutant
Not available.

Snow Depth

Station Depth Elevation

Earthquake Activity

City Distance Mag. Time & Date
Minimum magnitude displayed is 2.5.

Coastal Water Temperatures

Place Temperature

Stations

Nearby Weather Stations

Station Location Temp. Windchill Dew Point Humidity Wind Precip. Elev Updated Type